Terminal Aerodrome Forecast
Issued by NWS Twin Cities, MN

Home | Current Version | Previous Version | Graphics & Text | Print | Product List | Glossary On
Versions: 1 2 3 4 5 6 7 8 9 10 11 12 13 14 15 16 17 18 19 20 21 22 23 24 25 26 27 28
000
FTUS43 KMPX 151400 AAA
TAFMSP
TAF AMD
KMSP 151448Z 1515/1618 31006KT P6SM SKC
     FM151800 28007KT P6SM FEW250
     FM152200 20006KT P6SM BKN150
     FM161000 12015G22KT P6SM -SN OVC050
     FM161400 13016G23KT P6SM VCSH OVC040
     FM161700 16016G23KT 5SM -RA OVC030=

USA.gov is the U.S. government's official web portal to all federal, state and local government web resources and services.